sensor_id;sensor_type;location;lat;lon;timestamp;P1;durP1;ratioP1;P2;durP2;ratioP2
48423;SDS011;34232;42.502;26.014;2022-12-07T00:01:37;25.98;;;11.63;;
48423;SDS011;34232;42.502;26.014;2022-12-07T00:04:04;21.20;;;10.93;;
48423;SDS011;34232;42.502;26.014;2022-12-07T00:09:01;16.45;;;8.52;;
48423;SDS011;34232;42.502;26.014;2022-12-07T00:11:26;22.90;;;9.63;;
48423;SDS011;34232;42.502;26.014;2022-12-07T00:13:53;18.83;;;9.67;;
48423;SDS011;34232;42.502;26.014;2022-12-07T00:16:20;22.42;;;10.57;;
48423;SDS011;34232;42.502;26.014;2022-12-07T00:23:39;22.05;;;10.15;;
48423;SDS011;34232;42.502;26.014;2022-12-07T00:26:06;25.48;;;10.38;;
48423;SDS011;34232;42.502;26.014;2022-12-07T00:28:36;16.13;;;8.48;;
48423;SDS011;34232;42.502;26.014;2022-12-07T00:31:05;26.53;;;8.87;;
48423;SDS011;34232;42.502;26.014;2022-12-07T00:33:32;20.42;;;9.20;;
48423;SDS011;34232;42.502;26.014;2022-12-07T00:35:58;19.52;;;9.60;;
48423;SDS011;34232;42.502;26.014;2022-12-07T00:38:27;19.65;;;9.40;;
48423;SDS011;34232;42.502;26.014;2022-12-07T00:40:55;15.50;;;7.93;;
48423;SDS011;34232;42.502;26.014;2022-12-07T00:43:24;16.40;;;8.38;;
48423;SDS011;34232;42.502;26.014;2022-12-07T00:45:50;15.65;;;8.70;;
48423;SDS011;34232;42.502;26.014;2022-12-07T00:48:15;15.67;;;8.50;;
48423;SDS011;34232;42.502;26.014;2022-12-07T00:50:41;17.77;;;8.60;;
48423;SDS011;34232;42.502;26.014;2022-12-07T00:53:06;17.30;;;8.40;;
48423;SDS011;34232;42.502;26.014;2022-12-07T00:55:35;13.87;;;7.90;;
48423;SDS011;34232;42.502;26.014;2022-12-07T00:58:01;16.33;;;9.07;;
48423;SDS011;34232;42.502;26.014;2022-12-07T01:00:27;18.50;;;9.17;;
48423;SDS011;34232;42.502;26.014;2022-12-07T01:02:52;16.07;;;8.53;;
48423;SDS011;34232;42.502;26.014;2022-12-07T01:05:18;18.30;;;8.97;;
48423;SDS011;34232;42.502;26.014;2022-12-07T01:07:43;23.77;;;10.60;;
48423;SDS011;34232;42.502;26.014;2022-12-07T01:10:09;17.33;;;8.77;;
48423;SDS011;34232;42.502;26.014;2022-12-07T01:12:35;17.47;;;8.07;;
48423;SDS011;34232;42.502;26.014;2022-12-07T01:15:00;19.27;;;8.60;;
48423;SDS011;34232;42.502;26.014;2022-12-07T01:17:26;18.17;;;8.43;;
48423;SDS011;34232;42.502;26.014;2022-12-07T01:19:51;18.63;;;7.80;;
48423;SDS011;34232;42.502;26.014;2022-12-07T01:22:16;14.53;;;8.50;;
48423;SDS011;34232;42.502;26.014;2022-12-07T01:24:42;16.43;;;8.50;;
48423;SDS011;34232;42.502;26.014;2022-12-07T01:27:07;19.37;;;9.30;;
48423;SDS011;34232;42.502;26.014;2022-12-07T01:29:33;18.27;;;8.93;;
48423;SDS011;34232;42.502;26.014;2022-12-07T01:31:58;23.53;;;9.97;;
48423;SDS011;34232;42.502;26.014;2022-12-07T01:34:23;21.73;;;10.43;;
48423;SDS011;34232;42.502;26.014;2022-12-07T01:36:49;18.70;;;10.07;;
48423;SDS011;34232;42.502;26.014;2022-12-07T01:39:14;16.37;;;7.90;;
48423;SDS011;34232;42.502;26.014;2022-12-07T01:41:40;19.33;;;8.63;;
48423;SDS011;34232;42.502;26.014;2022-12-07T01:44:11;20.98;;;9.88;;
48423;SDS011;34232;42.502;26.014;2022-12-07T01:46:39;21.13;;;10.13;;
48423;SDS011;34232;42.502;26.014;2022-12-07T01:49:06;20.23;;;10.10;;
48423;SDS011;34232;42.502;26.014;2022-12-07T01:51:35;20.33;;;9.57;;
48423;SDS011;34232;42.502;26.014;2022-12-07T01:54:03;22.83;;;10.70;;
48423;SDS011;34232;42.502;26.014;2022-12-07T01:56:29;27.70;;;12.20;;
48423;SDS011;34232;42.502;26.014;2022-12-07T01:58:57;22.45;;;10.65;;
48423;SDS011;34232;42.502;26.014;2022-12-07T02:01:25;27.75;;;11.40;;
48423;SDS011;34232;42.502;26.014;2022-12-07T02:03:50;22.10;;;10.50;;
48423;SDS011;34232;42.502;26.014;2022-12-07T02:06:19;22.10;;;11.20;;
48423;SDS011;34232;42.502;26.014;2022-12-07T02:08:49;22.67;;;11.52;;
48423;SDS011;34232;42.502;26.014;2022-12-07T02:11:14;21.63;;;11.00;;
48423;SDS011;34232;42.502;26.014;2022-12-07T02:13:41;23.92;;;10.63;;
48423;SDS011;34232;42.502;26.014;2022-12-07T02:16:21;24.65;;;11.65;;
48423;SDS011;34232;42.502;26.014;2022-12-07T02:21:52;25.25;;;10.65;;
48423;SDS011;34232;42.502;26.014;2022-12-07T02:24:30;25.50;;;11.00;;
48423;SDS011;34232;42.502;26.014;2022-12-07T02:30:00;27.98;;;10.70;;
48423;SDS011;34232;42.502;26.014;2022-12-07T02:35:07;28.75;;;11.32;;
48423;SDS011;34232;42.502;26.014;2022-12-07T02:37:51;30.85;;;12.98;;
48423;SDS011;34232;42.502;26.014;2022-12-07T02:40:23;27.80;;;10.43;;
48423;SDS011;34232;42.502;26.014;2022-12-07T02:42:58;23.67;;;10.48;;
48423;SDS011;34232;42.502;26.014;2022-12-07T02:45:28;26.90;;;10.68;;
48423;SDS011;34232;42.502;26.014;2022-12-07T02:47:56;25.60;;;10.60;;
48423;SDS011;34232;42.502;26.014;2022-12-07T02:50:24;27.55;;;11.23;;
48423;SDS011;34232;42.502;26.014;2022-12-07T02:52:50;23.23;;;9.90;;
48423;SDS011;34232;42.502;26.014;2022-12-07T02:55:15;29.80;;;10.57;;
48423;SDS011;34232;42.502;26.014;2022-12-07T03:00:20;24.77;;;10.43;;
48423;SDS011;34232;42.502;26.014;2022-12-07T03:02:58;23.03;;;10.37;;
48423;SDS011;34232;42.502;26.014;2022-12-07T03:05:50;26.40;;;10.80;;
48423;SDS011;34232;42.502;26.014;2022-12-07T03:08:31;26.13;;;11.32;;
48423;SDS011;34232;42.502;26.014;2022-12-07T03:14:19;26.38;;;11.45;;
48423;SDS011;34232;42.502;26.014;2022-12-07T03:16:57;29.52;;;11.95;;
48423;SDS011;34232;42.502;26.014;2022-12-07T03:19:29;25.50;;;11.52;;
48423;SDS011;34232;42.502;26.014;2022-12-07T03:22:02;27.42;;;10.77;;
48423;SDS011;34232;42.502;26.014;2022-12-07T03:24:37;23.55;;;10.73;;
48423;SDS011;34232;42.502;26.014;2022-12-07T03:27:08;25.98;;;10.35;;
48423;SDS011;34232;42.502;26.014;2022-12-07T03:29:40;25.58;;;8.15;;
48423;SDS011;34232;42.502;26.014;2022-12-07T03:32:14;20.05;;;9.75;;
48423;SDS011;34232;42.502;26.014;2022-12-07T03:34:53;18.17;;;8.57;;
48423;SDS011;34232;42.502;26.014;2022-12-07T03:37:29;16.35;;;8.25;;
48423;SDS011;34232;42.502;26.014;2022-12-07T03:42:50;19.33;;;9.13;;
48423;SDS011;34232;42.502;26.014;2022-12-07T03:45:18;23.17;;;9.20;;
48423;SDS011;34232;42.502;26.014;2022-12-07T03:47:51;20.75;;;8.68;;
48423;SDS011;34232;42.502;26.014;2022-12-07T03:50:31;22.67;;;8.65;;
48423;SDS011;34232;42.502;26.014;2022-12-07T03:53:16;20.73;;;8.65;;
48423;SDS011;34232;42.502;26.014;2022-12-07T03:55:56;22.65;;;9.40;;
48423;SDS011;34232;42.502;26.014;2022-12-07T03:58:23;21.02;;;8.90;;
48423;SDS011;34232;42.502;26.014;2022-12-07T04:00:50;21.15;;;9.57;;
48423;SDS011;34232;42.502;26.014;2022-12-07T04:03:16;23.15;;;10.23;;
48423;SDS011;34232;42.502;26.014;2022-12-07T04:05:42;39.33;;;9.70;;
48423;SDS011;34232;42.502;26.014;2022-12-07T04:08:08;20.33;;;10.07;;
48423;SDS011;34232;42.502;26.014;2022-12-07T04:10:33;24.97;;;12.57;;
48423;SDS011;34232;42.502;26.014;2022-12-07T04:12:59;27.75;;;10.32;;
48423;SDS011;34232;42.502;26.014;2022-12-07T04:15:24;22.93;;;10.87;;
48423;SDS011;34232;42.502;26.014;2022-12-07T04:17:50;24.43;;;10.00;;
48423;SDS011;34232;42.502;26.014;2022-12-07T04:20:15;19.10;;;9.50;;
48423;SDS011;34232;42.502;26.014;2022-12-07T04:22:41;18.87;;;8.67;;
48423;SDS011;34232;42.502;26.014;2022-12-07T04:25:07;20.03;;;8.30;;
48423;SDS011;34232;42.502;26.014;2022-12-07T04:27:32;22.37;;;9.20;;
48423;SDS011;34232;42.502;26.014;2022-12-07T04:29:58;28.63;;;10.27;;
48423;SDS011;34232;42.502;26.014;2022-12-07T04:32:23;37.33;;;8.70;;
48423;SDS011;34232;42.502;26.014;2022-12-07T04:34:49;27.80;;;11.03;;
48423;SDS011;34232;42.502;26.014;2022-12-07T04:37:14;24.80;;;9.20;;
48423;SDS011;34232;42.502;26.014;2022-12-07T04:39:40;35.60;;;11.13;;
48423;SDS011;34232;42.502;26.014;2022-12-07T04:42:05;25.73;;;9.93;;
48423;SDS011;34232;42.502;26.014;2022-12-07T04:44:31;24.47;;;9.07;;
48423;SDS011;34232;42.502;26.014;2022-12-07T04:46:56;28.97;;;12.10;;
48423;SDS011;34232;42.502;26.014;2022-12-07T04:49:22;26.17;;;10.90;;
48423;SDS011;34232;42.502;26.014;2022-12-07T04:51:47;26.07;;;10.50;;
48423;SDS011;34232;42.502;26.014;2022-12-07T04:54:14;26.17;;;10.50;;
48423;SDS011;34232;42.502;26.014;2022-12-07T04:56:40;24.23;;;9.82;;
48423;SDS011;34232;42.502;26.014;2022-12-07T04:59:05;32.77;;;11.77;;
48423;SDS011;34232;42.502;26.014;2022-12-07T05:01:32;32.78;;;11.35;;
48423;SDS011;34232;42.502;26.014;2022-12-07T05:03:58;33.35;;;11.25;;
48423;SDS011;34232;42.502;26.014;2022-12-07T05:06:24;32.47;;;12.83;;
48423;SDS011;34232;42.502;26.014;2022-12-07T05:08:50;32.35;;;13.75;;
48423;SDS011;34232;42.502;26.014;2022-12-07T05:11:15;35.73;;;12.67;;
48423;SDS011;34232;42.502;26.014;2022-12-07T05:14:00;33.63;;;13.65;;
48423;SDS011;34232;42.502;26.014;2022-12-07T05:16:26;32.83;;;15.73;;
48423;SDS011;34232;42.502;26.014;2022-12-07T05:18:52;39.97;;;16.30;;
48423;SDS011;34232;42.502;26.014;2022-12-07T05:21:18;49.40;;;19.33;;
48423;SDS011;34232;42.502;26.014;2022-12-07T05:23:43;42.23;;;15.67;;
48423;SDS011;34232;42.502;26.014;2022-12-07T05:26:09;48.57;;;20.43;;
48423;SDS011;34232;42.502;26.014;2022-12-07T05:28:34;43.47;;;18.60;;
48423;SDS011;34232;42.502;26.014;2022-12-07T05:31:00;39.97;;;15.20;;
48423;SDS011;34232;42.502;26.014;2022-12-07T05:33:25;41.33;;;13.87;;
48423;SDS011;34232;42.502;26.014;2022-12-07T05:35:51;41.07;;;15.77;;
48423;SDS011;34232;42.502;26.014;2022-12-07T05:38:16;42.77;;;16.67;;
48423;SDS011;34232;42.502;26.014;2022-12-07T05:40:41;36.63;;;13.40;;
48423;SDS011;34232;42.502;26.014;2022-12-07T05:43:07;45.37;;;14.23;;
48423;SDS011;34232;42.502;26.014;2022-12-07T05:45:32;42.70;;;14.10;;
48423;SDS011;34232;42.502;26.014;2022-12-07T05:47:58;38.87;;;13.03;;
48423;SDS011;34232;42.502;26.014;2022-12-07T05:50:23;39.17;;;16.63;;
48423;SDS011;34232;42.502;26.014;2022-12-07T05:52:49;47.83;;;17.53;;
48423;SDS011;34232;42.502;26.014;2022-12-07T05:55:14;36.27;;;13.20;;
48423;SDS011;34232;42.502;26.014;2022-12-07T05:57:40;37.70;;;15.70;;
48423;SDS011;34232;42.502;26.014;2022-12-07T06:00:25;45.22;;;14.93;;
48423;SDS011;34232;42.502;26.014;2022-12-07T06:02:51;40.13;;;13.97;;
48423;SDS011;34232;42.502;26.014;2022-12-07T06:05:16;44.63;;;16.00;;
48423;SDS011;34232;42.502;26.014;2022-12-07T06:07:41;47.90;;;15.23;;
48423;SDS011;34232;42.502;26.014;2022-12-07T06:10:07;47.40;;;15.23;;
48423;SDS011;34232;42.502;26.014;2022-12-07T06:12:32;42.37;;;13.40;;
48423;SDS011;34232;42.502;26.014;2022-12-07T06:15:03;50.40;;;15.68;;
48423;SDS011;34232;42.502;26.014;2022-12-07T06:17:28;52.93;;;17.73;;
48423;SDS011;34232;42.502;26.014;2022-12-07T06:19:54;49.55;;;15.82;;
48423;SDS011;34232;42.502;26.014;2022-12-07T06:22:19;51.87;;;17.17;;
48423;SDS011;34232;42.502;26.014;2022-12-07T06:24:45;41.20;;;14.67;;
48423;SDS011;34232;42.502;26.014;2022-12-07T06:27:10;49.28;;;20.05;;
48423;SDS011;34232;42.502;26.014;2022-12-07T06:29:36;42.33;;;18.97;;
48423;SDS011;34232;42.502;26.014;2022-12-07T06:32:01;31.47;;;12.23;;
48423;SDS011;34232;42.502;26.014;2022-12-07T06:34:27;34.37;;;13.27;;
48423;SDS011;34232;42.502;26.014;2022-12-07T06:36:53;43.77;;;15.80;;
48423;SDS011;34232;42.502;26.014;2022-12-07T06:39:23;47.90;;;15.20;;
48423;SDS011;34232;42.502;26.014;2022-12-07T06:41:50;41.42;;;14.65;;
48423;SDS011;34232;42.502;26.014;2022-12-07T06:44:17;70.10;;;16.30;;
48423;SDS011;34232;42.502;26.014;2022-12-07T06:46:43;48.83;;;18.07;;
48423;SDS011;34232;42.502;26.014;2022-12-07T06:49:08;50.83;;;22.27;;
48423;SDS011;34232;42.502;26.014;2022-12-07T06:51:34;45.87;;;14.67;;
48423;SDS011;34232;42.502;26.014;2022-12-07T06:54:02;51.85;;;19.27;;
48423;SDS011;34232;42.502;26.014;2022-12-07T06:58:53;42.38;;;14.68;;
48423;SDS011;34232;42.502;26.014;2022-12-07T07:01:19;53.37;;;20.83;;
48423;SDS011;34232;42.502;26.014;2022-12-07T07:03:45;49.60;;;20.70;;
48423;SDS011;34232;42.502;26.014;2022-12-07T07:06:11;65.82;;;22.20;;
48423;SDS011;34232;42.502;26.014;2022-12-07T07:08:37;59.10;;;20.73;;
48423;SDS011;34232;42.502;26.014;2022-12-07T07:11:04;57.92;;;20.58;;
48423;SDS011;34232;42.502;26.014;2022-12-07T07:13:30;68.33;;;21.40;;
48423;SDS011;34232;42.502;26.014;2022-12-07T07:15:55;63.10;;;22.00;;
48423;SDS011;34232;42.502;26.014;2022-12-07T07:18:21;61.17;;;23.80;;
48423;SDS011;34232;42.502;26.014;2022-12-07T07:20:55;48.10;;;18.95;;
48423;SDS011;34232;42.502;26.014;2022-12-07T07:23:21;62.90;;;23.10;;
48423;SDS011;34232;42.502;26.014;2022-12-07T07:25:47;63.47;;;22.70;;
48423;SDS011;34232;42.502;26.014;2022-12-07T07:28:13;58.17;;;23.07;;
48423;SDS011;34232;42.502;26.014;2022-12-07T07:30:39;57.15;;;23.63;;
48423;SDS011;34232;42.502;26.014;2022-12-07T07:33:04;65.73;;;26.33;;
48423;SDS011;34232;42.502;26.014;2022-12-07T07:35:31;63.23;;;23.83;;
48423;SDS011;34232;42.502;26.014;2022-12-07T07:37:58;67.65;;;24.58;;
48423;SDS011;34232;42.502;26.014;2022-12-07T07:40:23;66.00;;;24.47;;
48423;SDS011;34232;42.502;26.014;2022-12-07T07:42:49;69.20;;;24.07;;
48423;SDS011;34232;42.502;26.014;2022-12-07T07:45:16;55.33;;;22.80;;
48423;SDS011;34232;42.502;26.014;2022-12-07T07:47:42;57.92;;;21.45;;
48423;SDS011;34232;42.502;26.014;2022-12-07T07:50:07;55.87;;;20.73;;
48423;SDS011;34232;42.502;26.014;2022-12-07T07:52:33;46.97;;;19.87;;
48423;SDS011;34232;42.502;26.014;2022-12-07T07:54:59;49.07;;;18.83;;
48423;SDS011;34232;42.502;26.014;2022-12-07T07:57:24;52.50;;;23.17;;
48423;SDS011;34232;42.502;26.014;2022-12-07T07:59:49;48.27;;;19.73;;
48423;SDS011;34232;42.502;26.014;2022-12-07T08:02:18;48.13;;;19.37;;
48423;SDS011;34232;42.502;26.014;2022-12-07T08:04:45;62.13;;;23.88;;
48423;SDS011;34232;42.502;26.014;2022-12-07T08:07:11;44.47;;;19.50;;
48423;SDS011;34232;42.502;26.014;2022-12-07T08:09:37;48.78;;;19.92;;
48423;SDS011;34232;42.502;26.014;2022-12-07T08:12:03;52.73;;;21.30;;
48423;SDS011;34232;42.502;26.014;2022-12-07T08:14:29;51.38;;;18.92;;
48423;SDS011;34232;42.502;26.014;2022-12-07T08:16:54;48.80;;;18.60;;
48423;SDS011;34232;42.502;26.014;2022-12-07T08:19:20;44.10;;;18.47;;
48423;SDS011;34232;42.502;26.014;2022-12-07T08:21:48;42.97;;;18.80;;
48423;SDS011;34232;42.502;26.014;2022-12-07T08:24:14;44.63;;;16.70;;
48423;SDS011;34232;42.502;26.014;2022-12-07T08:26:40;38.70;;;16.03;;
48423;SDS011;34232;42.502;26.014;2022-12-07T08:29:05;41.77;;;17.70;;
48423;SDS011;34232;42.502;26.014;2022-12-07T08:31:31;41.67;;;17.90;;
48423;SDS011;34232;42.502;26.014;2022-12-07T08:33:56;32.77;;;14.73;;
48423;SDS011;34232;42.502;26.014;2022-12-07T08:36:22;30.93;;;14.93;;
48423;SDS011;34232;42.502;26.014;2022-12-07T08:38:48;41.90;;;16.30;;
48423;SDS011;34232;42.502;26.014;2022-12-07T08:41:14;49.63;;;18.42;;
48423;SDS011;34232;42.502;26.014;2022-12-07T08:43:40;33.50;;;15.50;;
48423;SDS011;34232;42.502;26.014;2022-12-07T08:48:45;42.00;;;16.60;;
48423;SDS011;34232;42.502;26.014;2022-12-07T08:51:14;36.33;;;17.63;;
48423;SDS011;34232;42.502;26.014;2022-12-07T08:53:40;28.13;;;14.17;;
48423;SDS011;34232;42.502;26.014;2022-12-07T08:56:06;30.00;;;15.00;;
48423;SDS011;34232;42.502;26.014;2022-12-07T08:58:33;40.38;;;16.33;;
48423;SDS011;34232;42.502;26.014;2022-12-07T09:01:00;29.95;;;14.98;;
48423;SDS011;34232;42.502;26.014;2022-12-07T09:03:25;30.87;;;15.53;;
48423;SDS011;34232;42.502;26.014;2022-12-07T09:05:52;39.40;;;18.07;;
48423;SDS011;34232;42.502;26.014;2022-12-07T09:08:18;35.25;;;16.02;;
48423;SDS011;34232;42.502;26.014;2022-12-07T09:10:45;37.83;;;17.73;;
48423;SDS011;34232;42.502;26.014;2022-12-07T09:13:11;30.53;;;14.53;;
48423;SDS011;34232;42.502;26.014;2022-12-07T09:15:36;25.30;;;12.47;;
48423;SDS011;34232;42.502;26.014;2022-12-07T09:18:02;41.70;;;16.97;;
48423;SDS011;34232;42.502;26.014;2022-12-07T09:20:27;33.40;;;12.80;;
48423;SDS011;34232;42.502;26.014;2022-12-07T09:22:53;28.37;;;13.73;;
48423;SDS011;34232;42.502;26.014;2022-12-07T09:25:18;24.40;;;12.90;;
48423;SDS011;34232;42.502;26.014;2022-12-07T09:27:44;35.03;;;16.63;;
48423;SDS011;34232;42.502;26.014;2022-12-07T09:30:09;32.43;;;16.63;;
48423;SDS011;34232;42.502;26.014;2022-12-07T09:32:35;28.03;;;14.23;;
48423;SDS011;34232;42.502;26.014;2022-12-07T09:35:00;33.27;;;15.17;;
48423;SDS011;34232;42.502;26.014;2022-12-07T09:37:25;36.83;;;17.97;;
48423;SDS011;34232;42.502;26.014;2022-12-07T09:39:51;36.97;;;17.30;;
48423;SDS011;34232;42.502;26.014;2022-12-07T09:42:27;30.53;;;14.43;;
48423;SDS011;34232;42.502;26.014;2022-12-07T09:44:54;28.85;;;12.52;;
48423;SDS011;34232;42.502;26.014;2022-12-07T09:47:20;26.67;;;10.23;;
48423;SDS011;34232;42.502;26.014;2022-12-07T09:49:46;16.57;;;8.13;;
48423;SDS011;34232;42.502;26.014;2022-12-07T09:54:37;23.97;;;11.87;;
48423;SDS011;34232;42.502;26.014;2022-12-07T09:57:07;25.40;;;11.75;;
48423;SDS011;34232;42.502;26.014;2022-12-07T09:59:33;23.73;;;12.25;;
48423;SDS011;34232;42.502;26.014;2022-12-07T10:02:04;21.57;;;9.67;;
48423;SDS011;34232;42.502;26.014;2022-12-07T10:04:48;22.80;;;10.25;;
48423;SDS011;34232;42.502;26.014;2022-12-07T10:07:14;26.50;;;9.27;;
48423;SDS011;34232;42.502;26.014;2022-12-07T10:09:39;18.37;;;8.33;;
48423;SDS011;34232;42.502;26.014;2022-12-07T10:12:09;19.38;;;8.27;;
48423;SDS011;34232;42.502;26.014;2022-12-07T10:14:40;32.72;;;11.13;;
48423;SDS011;34232;42.502;26.014;2022-12-07T10:17:31;23.52;;;11.02;;
48423;SDS011;34232;42.502;26.014;2022-12-07T10:23:04;22.70;;;9.05;;
48423;SDS011;34232;42.502;26.014;2022-12-07T10:25:38;18.40;;;7.85;;
48423;SDS011;34232;42.502;26.014;2022-12-07T10:28:10;17.13;;;7.97;;
48423;SDS011;34232;42.502;26.014;2022-12-07T10:30:47;21.48;;;7.85;;
48423;SDS011;34232;42.502;26.014;2022-12-07T10:35:58;13.57;;;7.50;;
48423;SDS011;34232;42.502;26.014;2022-12-07T10:38:27;17.95;;;6.90;;
48423;SDS011;34232;42.502;26.014;2022-12-07T10:41:04;25.67;;;8.35;;
48423;SDS011;34232;42.502;26.014;2022-12-07T10:43:34;13.80;;;6.45;;
48423;SDS011;34232;42.502;26.014;2022-12-07T10:49:20;16.10;;;7.43;;
48423;SDS011;34232;42.502;26.014;2022-12-07T10:51:58;33.70;;;12.45;;
48423;SDS011;34232;42.502;26.014;2022-12-07T10:54:41;15.45;;;8.45;;
48423;SDS011;34232;42.502;26.014;2022-12-07T11:05:59;23.17;;;9.32;;
48423;SDS011;34232;42.502;26.014;2022-12-07T11:11:30;20.83;;;8.13;;
48423;SDS011;34232;42.502;26.014;2022-12-07T11:16:50;16.80;;;7.10;;
48423;SDS011;34232;42.502;26.014;2022-12-07T11:21:57;21.25;;;9.15;;
48423;SDS011;34232;42.502;26.014;2022-12-07T11:24:29;22.90;;;8.60;;
48423;SDS011;34232;42.502;26.014;2022-12-07T11:35:08;12.32;;;7.28;;
48423;SDS011;34232;42.502;26.014;2022-12-07T11:37:43;21.13;;;8.70;;
48423;SDS011;34232;42.502;26.014;2022-12-07T11:42:45;14.73;;;7.20;;
48423;SDS011;34232;42.502;26.014;2022-12-07T11:45:20;13.45;;;7.03;;
48423;SDS011;34232;42.502;26.014;2022-12-07T11:47:59;12.43;;;6.15;;
48423;SDS011;34232;42.502;26.014;2022-12-07T11:50:35;12.48;;;7.20;;
48423;SDS011;34232;42.502;26.014;2022-12-07T11:58:35;18.63;;;7.88;;
48423;SDS011;34232;42.502;26.014;2022-12-07T12:01:14;11.77;;;5.85;;
48423;SDS011;34232;42.502;26.014;2022-12-07T12:03:52;16.27;;;7.28;;
48423;SDS011;34232;42.502;26.014;2022-12-07T12:06:19;15.40;;;6.20;;
48423;SDS011;34232;42.502;26.014;2022-12-07T12:08:58;17.98;;;6.75;;
48423;SDS011;34232;42.502;26.014;2022-12-07T12:19:16;16.23;;;7.60;;
48423;SDS011;34232;42.502;26.014;2022-12-07T12:22:15;19.30;;;9.13;;
48423;SDS011;34232;42.502;26.014;2022-12-07T12:24:47;17.77;;;8.82;;
48423;SDS011;34232;42.502;26.014;2022-12-07T12:27:26;24.05;;;9.95;;
48423;SDS011;34232;42.502;26.014;2022-12-07T12:29:56;26.15;;;10.63;;
48423;SDS011;34232;42.502;26.014;2022-12-07T12:32:43;27.75;;;10.60;;
48423;SDS011;34232;42.502;26.014;2022-12-07T12:35:21;21.77;;;8.73;;
48423;SDS011;34232;42.502;26.014;2022-12-07T12:38:20;14.40;;;7.95;;
48423;SDS011;34232;42.502;26.014;2022-12-07T12:40:52;14.10;;;7.60;;
48423;SDS011;34232;42.502;26.014;2022-12-07T12:57:37;21.65;;;9.52;;
48423;SDS011;34232;42.502;26.014;2022-12-07T13:00:14;29.00;;;11.70;;
48423;SDS011;34232;42.502;26.014;2022-12-07T13:02:53;23.98;;;9.45;;
48423;SDS011;34232;42.502;26.014;2022-12-07T13:05:31;22.45;;;10.43;;
48423;SDS011;34232;42.502;26.014;2022-12-07T13:12:58;19.50;;;9.90;;
48423;SDS011;34232;42.502;26.014;2022-12-07T13:20:40;21.50;;;10.65;;
48423;SDS011;34232;42.502;26.014;2022-12-07T13:23:09;39.78;;;13.65;;
48423;SDS011;34232;42.502;26.014;2022-12-07T13:25:42;25.07;;;11.63;;
48423;SDS011;34232;42.502;26.014;2022-12-07T13:28:16;52.70;;;20.95;;
48423;SDS011;34232;42.502;26.014;2022-12-07T13:33:38;45.90;;;19.45;;
48423;SDS011;34232;42.502;26.014;2022-12-07T13:36:03;39.63;;;17.90;;
48423;SDS011;34232;42.502;26.014;2022-12-07T13:38:54;38.80;;;17.85;;
48423;SDS011;34232;42.502;26.014;2022-12-07T13:41:43;21.65;;;11.80;;
48423;SDS011;34232;42.502;26.014;2022-12-07T13:44:09;30.67;;;13.35;;
48423;SDS011;34232;42.502;26.014;2022-12-07T13:49:31;27.00;;;12.52;;
48423;SDS011;34232;42.502;26.014;2022-12-07T13:52:15;32.58;;;15.50;;
48423;SDS011;34232;42.502;26.014;2022-12-07T13:57:26;58.97;;;22.15;;
48423;SDS011;34232;42.502;26.014;2022-12-07T13:59:55;35.08;;;16.35;;
48423;SDS011;34232;42.502;26.014;2022-12-07T14:02:28;37.87;;;17.10;;
48423;SDS011;34232;42.502;26.014;2022-12-07T14:05:14;39.92;;;18.35;;
48423;SDS011;34232;42.502;26.014;2022-12-07T14:07:58;44.25;;;17.40;;
48423;SDS011;34232;42.502;26.014;2022-12-07T14:12:57;37.78;;;15.23;;
48423;SDS011;34232;42.502;26.014;2022-12-07T14:15:32;40.45;;;18.23;;
48423;SDS011;34232;42.502;26.014;2022-12-07T14:18:00;43.28;;;19.77;;
48423;SDS011;34232;42.502;26.014;2022-12-07T14:20:33;54.88;;;25.00;;
48423;SDS011;34232;42.502;26.014;2022-12-07T14:23:03;41.65;;;20.10;;
48423;SDS011;34232;42.502;26.014;2022-12-07T14:25:48;58.00;;;23.55;;
48423;SDS011;34232;42.502;26.014;2022-12-07T14:28:28;48.40;;;22.38;;
48423;SDS011;34232;42.502;26.014;2022-12-07T14:30:56;48.60;;;22.23;;
48423;SDS011;34232;42.502;26.014;2022-12-07T14:33:21;68.30;;;29.20;;
48423;SDS011;34232;42.502;26.014;2022-12-07T14:38:14;72.05;;;30.45;;
48423;SDS011;34232;42.502;26.014;2022-12-07T14:40:39;99.17;;;36.40;;
48423;SDS011;34232;42.502;26.014;2022-12-07T14:43:06;93.90;;;36.33;;
48423;SDS011;34232;42.502;26.014;2022-12-07T14:45:36;96.55;;;38.40;;
48423;SDS011;34232;42.502;26.014;2022-12-07T14:48:01;74.13;;;31.97;;
48423;SDS011;34232;42.502;26.014;2022-12-07T14:50:27;60.57;;;26.23;;
48423;SDS011;34232;42.502;26.014;2022-12-07T14:52:57;64.33;;;26.53;;
48423;SDS011;34232;42.502;26.014;2022-12-07T14:55:28;80.88;;;32.70;;
48423;SDS011;34232;42.502;26.014;2022-12-07T14:57:55;80.28;;;31.08;;
48423;SDS011;34232;42.502;26.014;2022-12-07T15:00:22;79.82;;;36.95;;
48423;SDS011;34232;42.502;26.014;2022-12-07T15:02:49;76.97;;;36.63;;
48423;SDS011;34232;42.502;26.014;2022-12-07T15:05:16;109.78;;;47.70;;
48423;SDS011;34232;42.502;26.014;2022-12-07T15:07:42;107.88;;;46.95;;
48423;SDS011;34232;42.502;26.014;2022-12-07T15:10:22;117.70;;;49.45;;
48423;SDS011;34232;42.502;26.014;2022-12-07T15:12:49;103.70;;;48.35;;
48423;SDS011;34232;42.502;26.014;2022-12-07T15:15:15;109.07;;;48.15;;
48423;SDS011;34232;42.502;26.014;2022-12-07T15:17:42;97.18;;;46.00;;
48423;SDS011;34232;42.502;26.014;2022-12-07T15:20:14;84.37;;;42.13;;
48423;SDS011;34232;42.502;26.014;2022-12-07T15:22:41;68.65;;;33.28;;
48423;SDS011;34232;42.502;26.014;2022-12-07T15:25:07;74.30;;;33.57;;
48423;SDS011;34232;42.502;26.014;2022-12-07T15:27:33;70.63;;;34.22;;
48423;SDS011;34232;42.502;26.014;2022-12-07T15:29:59;88.10;;;33.50;;
48423;SDS011;34232;42.502;26.014;2022-12-07T15:32:24;62.70;;;30.30;;
48423;SDS011;34232;42.502;26.014;2022-12-07T15:34:50;67.90;;;31.17;;
48423;SDS011;34232;42.502;26.014;2022-12-07T15:37:15;71.77;;;32.73;;
48423;SDS011;34232;42.502;26.014;2022-12-07T15:39:41;83.43;;;31.70;;
48423;SDS011;34232;42.502;26.014;2022-12-07T15:42:06;63.87;;;25.50;;
48423;SDS011;34232;42.502;26.014;2022-12-07T15:44:32;62.07;;;25.20;;
48423;SDS011;34232;42.502;26.014;2022-12-07T15:47:16;66.60;;;28.05;;
48423;SDS011;34232;42.502;26.014;2022-12-07T15:49:42;52.97;;;26.20;;
48423;SDS011;34232;42.502;26.014;2022-12-07T15:52:07;48.50;;;22.77;;
48423;SDS011;34232;42.502;26.014;2022-12-07T15:54:33;46.10;;;22.60;;
48423;SDS011;34232;42.502;26.014;2022-12-07T15:56:59;41.17;;;20.70;;
48423;SDS011;34232;42.502;26.014;2022-12-07T15:59:25;47.37;;;20.27;;
48423;SDS011;34232;42.502;26.014;2022-12-07T16:01:51;44.90;;;19.38;;
48423;SDS011;34232;42.502;26.014;2022-12-07T16:04:17;35.50;;;17.00;;
48423;SDS011;34232;42.502;26.014;2022-12-07T16:06:42;35.70;;;15.90;;
48423;SDS011;34232;42.502;26.014;2022-12-07T16:09:08;32.27;;;15.80;;
48423;SDS011;34232;42.502;26.014;2022-12-07T16:11:33;70.83;;;20.03;;
48423;SDS011;34232;42.502;26.014;2022-12-07T16:13:59;50.33;;;16.87;;
48423;SDS011;34232;42.502;26.014;2022-12-07T16:16:24;40.33;;;16.40;;
48423;SDS011;34232;42.502;26.014;2022-12-07T16:18:50;30.10;;;14.30;;
48423;SDS011;34232;42.502;26.014;2022-12-07T16:21:16;42.00;;;15.67;;